Yuzhno-Sakhalinsk, Russia
Current Conditions -  °F | °C
As of 7:00 AM on Tuesday 25 Nov 2014 (Local Time) from UHSS Reporting Station
Clear Clear  
Wind Chill: 11°   Ceiling: Unl
Heat Index: 19°   Visibility: 6mi
Dew Point: 18°   Wind: 7mph
Humidity: 93%   Direction: 30°NNE
Pressure: 30"   Gusts: NA
Location:  46.95°N, 142.73°E
Report Text: UHSS 242000Z 03003MPS 9999 NSC M07/M08 Q1016 NOSIG RMKQFE761/1014 19CLRD65
Loading
Personal Weather Stations






























Interactive Weather Map New forecast layout! Learn more

10-Day Weather Forecast

Advertisements
Track Severe Weather on mobile